Saint Louis, Missouri
Traffic Map
Current Weather Conditions
Saint Louis, Missouri
Overcast Thunderstorm
Overcast
65°
Feels Like: 65°
Wind Chill: 65° Ceiling: 11000
Heat Index: 65° Visibility: 6mi
Dew Point: 62° Wind: 5mph
Humidity: 90% Direction: 220° (SW)
Pressure: 29.85in Gusts: 0mph
Raw Report DataKCPS 292320Z 22004KT 6SM VCTS RA BR OVC110 18/17 A2985 RMK AO2 LTG DSNT ALQDS P0003 T01830167
Traffic Incident Summary
Active as of:
Severity:
Category:
InformationThere was an issue retrieving the traffic information for this location. Please try a different location or try again shortly.
Advertisements
Track Severe Weather on mobile